Time;durP1;ratioP1;P1;durP2;ratioP2;P2;SDS_P1;SDS_P2;PMS_P1;PMS_P2;Temp;Humidity;BMP_temperature;BMP_pressure;BME280_temperature;BME280_humidity;BME280_pressure;Samples;Min_cycle;Max_cycle;Signal;HPM_P1;HPM_P2
2023/08/02 00:01:48;;;;;;;0.30;0.30;;;22.70;61.50;;;;;;6295291;28;20622;-62
2023/08/02 00:04:49;;;;;;;0.57;0.50;;;22.60;61.40;;;;;;6295554;28;20060;-59
2023/08/02 00:07:49;;;;;;;0.63;0.55;;;22.70;61.50;;;;;;6296057;28;20110;-62
2023/08/02 00:10:50;;;;;;;0.68;0.50;;;22.70;61.50;;;;;;6296474;28;20518;-63
2023/08/02 00:13:51;;;;;;;0.77;0.50;;;22.70;61.50;;;;;;6296412;28;20033;-63
2023/08/02 00:16:52;;;;;;;0.60;0.50;;;22.70;61.50;;;;;;6296115;28;20066;-63
2023/08/02 00:19:53;;;;;;;0.50;0.47;;;22.60;61.40;;;;;;6295952;28;20416;-60
2023/08/02 00:22:54;;;;;;;0.50;0.50;;;22.70;61.50;;;;;;6295963;28;20025;-63
2023/08/02 00:25:55;;;;;;;0.40;0.32;;;22.60;61.40;;;;;;6295493;28;20017;-62
2023/08/02 00:28:55;;;;;;;0.30;0.30;;;22.70;61.50;;;;;;6295801;28;20025;-62
2023/08/02 00:31:56;;;;;;;0.65;0.50;;;22.70;61.50;;;;;;6295769;28;20149;-63
2023/08/02 00:34:57;;;;;;;0.40;0.40;;;22.70;61.50;;;;;;6295636;28;20041;-62
2023/08/02 00:37:57;;;;;;;0.50;0.30;;;22.70;61.50;;;;;;6295327;28;20028;-63
2023/08/02 00:41:05;;;;;;;0.22;0.22;;;22.70;61.50;;;;;;6295560;28;20021;-62
2023/08/02 00:44:06;;;;;;;0.70;0.52;;;22.70;61.50;;;;;;6295674;28;20020;-62
2023/08/02 00:47:07;;;;;;;0.30;0.30;;;22.70;61.50;;;;;;6295189;28;20051;-62
2023/08/02 00:50:09;;;;;;;0.28;0.28;;;22.70;61.50;;;;;;6295409;28;20119;-63
2023/08/02 00:53:09;;;;;;;0.47;0.40;;;22.70;61.50;;;;;;6295220;28;20100;-62
2023/08/02 00:56:11;;;;;;;0.70;0.40;;;22.70;61.50;;;;;;6295053;28;20021;-62
2023/08/02 00:59:12;;;;;;;0.70;0.47;;;22.70;61.50;;;;;;6294918;28;20698;-62
2023/08/02 01:02:13;;;;;;;0.82;0.40;;;22.70;61.50;;;;;;6295203;28;20039;-62
2023/08/02 01:05:13;;;;;;;0.30;0.30;;;22.70;61.50;;;;;;6294496;28;20024;-62
2023/08/02 01:08:22;;;;;;;0.40;0.30;;;22.70;61.50;;;;;;6294760;28;20154;-64
2023/08/02 01:11:42;;;;;;;0.47;0.30;;;22.70;61.50;;;;;;6294751;28;20074;-61
2023/08/02 01:14:49;;;;;;;0.30;0.20;;;22.70;61.50;;;;;;6294017;28;20044;-61
2023/08/02 01:17:52;;;;;;;0.45;0.32;;;22.70;61.50;;;;;;6294756;28;20034;-62
2023/08/02 01:20:52;;;;;;;0.70;0.40;;;22.70;61.50;;;;;;6294523;28;20009;-63
2023/08/02 01:23:53;;;;;;;0.52;0.40;;;22.70;61.50;;;;;;6294777;28;20082;-64
2023/08/02 01:26:55;;;;;;;0.30;0.30;;;22.70;61.50;;;;;;6294400;28;20070;-62
2023/08/02 01:29:57;;;;;;;1.33;0.40;;;22.70;61.50;;;;;;6294526;28;20099;-59
2023/08/02 01:32:58;;;;;;;0.40;0.40;;;22.70;61.60;;;;;;6294519;28;20098;-60
2023/08/02 01:35:59;;;;;;;0.47;0.40;;;22.70;61.50;;;;;;6294660;28;20020;-63
2023/08/02 01:39:00;;;;;;;0.40;0.40;;;22.70;61.50;;;;;;6294323;28;20024;-62
2023/08/02 01:42:00;;;;;;;0.35;0.25;;;22.70;61.50;;;;;;6294383;28;20025;-64
2023/08/02 01:45:01;;;;;;;0.30;0.30;;;22.70;61.50;;;;;;6292970;28;20625;-63
2023/08/02 01:48:02;;;;;;;0.38;0.32;;;22.70;61.50;;;;;;6294322;28;20537;-64
2023/08/02 01:51:02;;;;;;;0.40;0.30;;;22.70;61.50;;;;;;6294277;28;20462;-62
2023/08/02 01:54:03;;;;;;;0.45;0.32;;;22.70;61.50;;;;;;6294470;28;20013;-64
2023/08/02 01:57:04;;;;;;;0.45;0.40;;;22.70;61.50;;;;;;6294093;28;20036;-63
2023/08/02 02:00:05;;;;;;;0.30;0.30;;;22.70;61.50;;;;;;6294217;28;20489;-62
2023/08/02 02:03:06;;;;;;;0.80;0.32;;;22.70;61.50;;;;;;6294155;28;20046;-61
2023/08/02 02:06:06;;;;;;;0.30;0.30;;;22.70;61.50;;;;;;6294119;28;20505;-63
2023/08/02 02:09:07;;;;;;;0.40;0.40;;;22.70;61.50;;;;;;6293967;28;20025;-61
2023/08/02 02:12:08;;;;;;;0.60;0.40;;;22.60;61.40;;;;;;6293924;28;20021;-63
2023/08/02 02:15:09;;;;;;;0.65;0.47;;;22.70;61.50;;;;;;6294012;28;20020;-63
2023/08/02 02:18:09;;;;;;;0.40;0.28;;;22.70;61.60;;;;;;6293875;28;20110;-62
2023/08/02 02:21:10;;;;;;;0.82;0.40;;;22.70;61.60;;;;;;6292481;28;20028;-62
2023/08/02 02:24:10;;;;;;;0.43;0.38;;;22.70;61.50;;;;;;6294081;28;20332;-62
2023/08/02 02:27:11;;;;;;;0.38;0.35;;;22.70;61.50;;;;;;6296483;28;20028;-61
2023/08/02 02:30:12;;;;;;;0.40;0.30;;;22.70;61.60;;;;;;6298475;28;20021;-64
2023/08/02 02:33:12;;;;;;;0.30;0.30;;;22.60;61.50;;;;;;6298417;28;20037;-63
2023/08/02 02:36:13;;;;;;;0.77;0.50;;;22.70;61.60;;;;;;6298595;28;20024;-62
2023/08/02 02:39:14;;;;;;;0.47;0.30;;;22.70;61.60;;;;;;6298526;28;20096;-62
2023/08/02 02:42:15;;;;;;;0.90;0.60;;;22.70;61.60;;;;;;6298515;28;20028;-62
2023/08/02 02:45:15;;;;;;;0.57;0.43;;;22.70;61.60;;;;;;6298325;28;20559;-62
2023/08/02 02:48:16;;;;;;;0.30;0.30;;;22.70;61.60;;;;;;6298238;28;20032;-62
2023/08/02 02:51:17;;;;;;;0.60;0.40;;;22.70;61.60;;;;;;6297107;28;20045;-64
2023/08/02 02:54:18;;;;;;;0.90;0.50;;;22.70;61.60;;;;;;6298259;28;20495;-62
2023/08/02 02:57:18;;;;;;;0.60;0.40;;;22.70;61.60;;;;;;6298147;28;20050;-61
2023/08/02 03:00:19;;;;;;;1.27;0.60;;;22.70;61.60;;;;;;6297784;28;20115;-63
2023/08/02 03:03:20;;;;;;;1.67;0.77;;;22.70;61.60;;;;;;6297877;28;20027;-64
2023/08/02 03:06:21;;;;;;;0.35;0.35;;;22.70;61.60;;;;;;6297607;28;20563;-63
2023/08/02 03:09:21;;;;;;;1.60;0.50;;;22.70;61.60;;;;;;6297702;28;20033;-63
2023/08/02 03:12:23;;;;;;;0.65;0.50;;;22.70;61.60;;;;;;6297611;28;20489;-63
2023/08/02 03:15:24;;;;;;;0.85;0.32;;;22.70;61.60;;;;;;6297692;28;20435;-62
2023/08/02 03:18:24;;;;;;;0.85;0.50;;;22.70;61.50;;;;;;6297521;28;20029;-64
2023/08/02 03:21:25;;;;;;;0.63;0.40;;;22.70;61.60;;;;;;6297539;28;20446;-64
2023/08/02 03:24:26;;;;;;;0.75;0.52;;;22.70;61.60;;;;;;6297425;28;20032;-63
2023/08/02 03:27:26;;;;;;;0.40;0.35;;;22.70;61.60;;;;;;6297636;28;20509;-63
2023/08/02 03:30:27;;;;;;;0.40;0.30;;;22.70;61.60;;;;;;6296240;28;20594;-64
2023/08/02 03:33:27;;;;;;;0.35;0.35;;;22.60;61.50;;;;;;6296853;28;20517;-63
2023/08/02 03:36:28;;;;;;;0.80;0.50;;;22.70;61.60;;;;;;6295606;28;20028;-64
2023/08/02 03:39:30;;;;;;;0.40;0.40;;;22.70;61.60;;;;;;6294773;28;20414;-63
2023/08/02 03:42:30;;;;;;;0.55;0.47;;;22.70;61.60;;;;;;6296805;28;20032;-63
2023/08/02 03:45:31;;;;;;;3.95;0.50;;;22.70;61.60;;;;;;6296972;28;20492;-63
2023/08/02 03:48:32;;;;;;;0.90;0.40;;;22.70;61.60;;;;;;6297138;28;20031;-63
2023/08/02 03:51:33;;;;;;;0.40;0.40;;;22.70;61.60;;;;;;6296659;28;20199;-63
2023/08/02 03:54:33;;;;;;;0.80;0.40;;;22.70;61.60;;;;;;6296622;28;20393;-63
2023/08/02 03:57:34;;;;;;;1.05;0.50;;;22.70;61.60;;;;;;6296793;28;20099;-63
2023/08/02 04:00:37;;;;;;;0.80;0.40;;;22.70;61.60;;;;;;6296565;28;20562;-62
2023/08/02 04:03:38;;;;;;;0.30;0.30;;;22.70;61.60;;;;;;6297045;28;20024;-64
2023/08/02 04:06:38;;;;;;;0.50;0.43;;;22.70;62.50;;;;;;6296222;28;20485;-64
2023/08/02 04:09:39;;;;;;;0.40;0.30;;;22.70;61.60;;;;;;6296713;28;20389;-63
2023/08/02 04:12:40;;;;;;;0.60;0.50;;;22.70;61.60;;;;;;6296137;28;20488;-62
2023/08/02 04:15:41;;;;;;;0.82;0.40;;;22.70;61.60;;;;;;6295806;28;20556;-63
2023/08/02 04:18:42;;;;;;;1.02;0.50;;;22.70;61.60;;;;;;6296049;28;20146;-63
2023/08/02 04:21:43;;;;;;;0.60;0.40;;;22.70;61.60;;;;;;6296088;28;20024;-63
2023/08/02 04:24:44;;;;;;;1.05;0.60;;;22.70;61.60;;;;;;6295701;28;20031;-64
2023/08/02 04:27:45;;;;;;;0.50;0.38;;;22.70;61.60;;;;;;6295904;28;20020;-62
2023/08/02 04:30:49;;;;;;;0.40;0.40;;;22.70;61.60;;;;;;6294497;28;20200;-61
2023/08/02 04:33:50;;;;;;;1.00;0.50;;;22.70;61.60;;;;;;6295482;28;20051;-63
2023/08/02 04:36:51;;;;;;;0.63;0.60;;;22.70;61.60;;;;;;6295496;28;20028;-64
2023/08/02 04:39:52;;;;;;;0.73;0.50;;;22.70;61.60;;;;;;6295598;28;20059;-62
2023/08/02 04:42:53;;;;;;;0.45;0.40;;;22.70;61.60;;;;;;6295418;28;20024;-63
2023/08/02 04:45:54;;;;;;;1.02;0.40;;;22.70;61.60;;;;;;6295222;28;20478;-62
2023/08/02 04:48:55;;;;;;;0.50;0.50;;;22.70;61.70;;;;;;6295495;28;20109;-63
2023/08/02 04:51:56;;;;;;;0.52;0.50;;;22.70;61.60;;;;;;6294125;28;20028;-61
2023/08/02 04:54:56;;;;;;;0.40;0.38;;;22.70;61.60;;;;;;6295266;28;20031;-63
2023/08/02 04:57:57;;;;;;;0.52;0.32;;;22.70;61.70;;;;;;6294987;28;20374;-63
2023/08/02 05:01:04;;;;;;;0.70;0.40;;;22.70;61.60;;;;;;6294915;28;20070;-61
2023/08/02 05:04:08;;;;;;;0.40;0.30;;;22.70;61.60;;;;;;6293596;28;20021;-63
2023/08/02 05:07:09;;;;;;;2.08;0.30;;;22.70;61.60;;;;;;6294953;28;20024;-63
2023/08/02 05:10:09;;;;;;;2.10;0.35;;;22.70;61.60;;;;;;6294805;28;20540;-63
2023/08/02 05:13:10;;;;;;;0.40;0.40;;;22.70;61.60;;;;;;6286765;28;20029;-70
2023/08/02 05:16:14;;;;;;;0.52;0.30;;;22.70;61.60;;;;;;6276401;28;20029;-69
2023/08/02 05:19:14;;;;;;;1.13;0.43;;;22.70;61.60;;;;;;6288808;28;20042;-70
2023/08/02 05:22:15;;;;;;;1.20;0.70;;;22.70;61.60;;;;;;6293833;28;20031;-69
2023/08/02 05:25:16;;;;;;;0.77;0.50;;;22.70;61.40;;;;;;6291647;28;20115;-69
2023/08/02 05:28:17;;;;;;;0.98;0.60;;;22.60;61.00;;;;;;6291911;28;20027;-69
2023/08/02 05:31:18;;;;;;;1.67;0.82;;;22.70;60.80;;;;;;6293220;28;20017;-69
2023/08/02 05:34:18;;;;;;;2.63;0.82;;;22.70;60.80;;;;;;6292774;28;20383;-69
2023/08/02 05:37:20;;;;;;;1.83;0.90;;;22.70;60.50;;;;;;6286384;28;20473;-69
2023/08/02 05:40:21;;;;;;;2.90;0.90;;;22.70;60.40;;;;;;6293017;28;20035;-70
2023/08/02 05:43:21;;;;;;;3.35;1.20;;;22.70;60.40;;;;;;6293454;28;20033;-69
2023/08/02 05:46:22;;;;;;;3.88;1.10;;;22.70;60.20;;;;;;6292572;28;20024;-69
2023/08/02 05:49:23;;;;;;;2.50;1.08;;;22.70;59.90;;;;;;6291775;28;20526;-69
2023/08/02 05:52:23;;;;;;;2.58;1.17;;;22.70;60.00;;;;;;6291493;28;20070;-69
2023/08/02 05:55:24;;;;;;;2.25;0.95;;;22.70;59.80;;;;;;6292697;28;20572;-70
2023/08/02 05:58:24;;;;;;;4.25;1.35;;;22.70;60.30;;;;;;6292894;28;20035;-69
2023/08/02 06:01:25;;;;;;;3.25;1.13;;;22.70;60.80;;;;;;6290770;28;20070;-69
2023/08/02 06:04:26;;;;;;;1.90;1.10;;;22.70;59.90;;;;;;6294470;28;20034;-69
2023/08/02 06:07:26;;;;;;;1.80;1.13;;;22.70;59.90;;;;;;6288248;28;20033;-69
2023/08/02 06:10:27;;;;;;;3.53;1.38;;;22.70;59.90;;;;;;6293785;28;20383;-70
2023/08/02 06:13:29;;;;;;;2.95;1.20;;;22.70;59.70;;;;;;6295084;28;20026;-69
2023/08/02 06:16:30;;;;;;;2.72;1.45;;;22.70;59.50;;;;;;6293380;28;20067;-69
2023/08/02 06:19:31;;;;;;;4.30;1.70;;;22.70;59.70;;;;;;6294792;28;20029;-69
2023/08/02 06:22:31;;;;;;;4.55;1.48;;;22.70;59.60;;;;;;6294366;28;20105;-69
2023/08/02 06:25:32;;;;;;;3.35;1.10;;;22.70;59.80;;;;;;6293624;28;20034;-66
2023/08/02 06:28:33;;;;;;;5.38;1.58;;;22.70;60.70;;;;;;6295151;28;20024;-65
2023/08/02 06:31:34;;;;;;;6.32;2.10;;;22.70;60.00;;;;;;6295268;28;20385;-65
2023/08/02 06:34:35;;;;;;;2.67;1.35;;;22.70;59.70;;;;;;6294883;28;20381;-65
2023/08/02 06:37:35;;;;;;;2.67;1.73;;;22.70;60.40;;;;;;6294958;28;20028;-65
2023/08/02 06:40:36;;;;;;;5.63;1.48;;;22.70;60.00;;;;;;6295298;28;20485;-65
2023/08/02 06:43:37;;;;;;;2.78;1.30;;;22.70;59.80;;;;;;6292780;28;20564;-66
2023/08/02 06:46:38;;;;;;;3.30;1.10;;;22.70;60.30;;;;;;6294710;28;20051;-66
2023/08/02 06:49:38;;;;;;;3.83;1.75;;;22.70;60.40;;;;;;6294903;28;20028;-66
2023/08/02 06:52:39;;;;;;;1.98;1.05;;;22.60;60.70;;;;;;6291354;28;20056;-66
2023/08/02 06:55:40;;;;;;;3.03;0.98;;;22.60;61.40;;;;;;6294711;28;20032;-66
2023/08/02 06:58:41;;;;;;;3.28;1.13;;;22.60;61.80;;;;;;6293728;28;20136;-67
2023/08/02 07:01:42;;;;;;;2.45;1.02;;;22.50;62.60;;;;;;6294767;28;20503;-66
2023/08/02 07:04:43;;;;;;;2.03;1.13;;;22.50;61.90;;;;;;6294990;28;20025;-66
2023/08/02 07:07:44;;;;;;;1.90;1.10;;;22.50;61.80;;;;;;6294586;28;20052;-65
2023/08/02 07:10:44;;;;;;;2.55;1.23;;;22.50;61.70;;;;;;6295000;28;20448;-66
2023/08/02 07:13:45;;;;;;;4.90;1.02;;;22.50;61.50;;;;;;6296235;28;20430;-65
2023/08/02 07:16:46;;;;;;;1.60;0.95;;;22.50;61.80;;;;;;6299170;28;20477;-65
2023/08/02 07:19:48;;;;;;;3.22;1.05;;;22.50;61.80;;;;;;6298934;28;20024;-66
2023/08/02 07:22:49;;;;;;;7.40;1.13;;;22.50;61.70;;;;;;6297706;28;20035;-65
2023/08/02 07:25:49;;;;;;;4.20;1.27;;;22.50;61.80;;;;;;6298540;28;20052;-65
2023/08/02 07:28:50;;;;;;;2.33;0.90;;;22.50;61.60;;;;;;6296774;28;20477;-65
2023/08/02 07:31:51;;;;;;;5.22;1.10;;;22.50;62.00;;;;;;6298581;28;20086;-65
2023/08/02 07:34:52;;;;;;;2.80;1.00;;;22.50;61.90;;;;;;6298730;28;20055;-65
2023/08/02 07:37:52;;;;;;;5.25;1.02;;;22.50;62.10;;;;;;6298531;28;20035;-65
2023/08/02 07:40:54;;;;;;;6.93;1.00;;;22.50;62.30;;;;;;6298199;28;20057;-65
2023/08/02 07:43:54;;;;;;;5.28;0.98;;;22.50;62.10;;;;;;6298323;28;20024;-65
2023/08/02 07:46:55;;;;;;;3.22;0.88;;;22.50;62.10;;;;;;6298217;28;20078;-65
2023/08/02 07:49:56;;;;;;;2.05;0.93;;;22.50;62.20;;;;;;6298232;28;20024;-65
2023/08/02 07:52:56;;;;;;;1.08;0.80;;;22.50;62.30;;;;;;6298324;28;20504;-65
2023/08/02 07:56:02;;;;;;;2.30;1.23;;;22.40;62.40;;;;;;6296728;28;20405;-65
2023/08/02 07:59:03;;;;;;;1.00;0.70;;;22.40;62.40;;;;;;6298145;28;20481;-65
2023/08/02 08:02:04;;;;;;;3.10;0.80;;;22.40;62.50;;;;;;6296400;28;20099;-66
2023/08/02 08:05:06;;;;;;;2.05;0.90;;;22.40;62.50;;;;;;6296709;28;20024;-65
2023/08/02 08:08:06;;;;;;;1.45;0.73;;;22.40;62.40;;;;;;6297590;28;20381;-69
2023/08/02 08:11:07;;;;;;;5.10;1.10;;;22.40;62.40;;;;;;6297580;28;20028;-65
2023/08/02 08:14:08;;;;;;;1.35;0.93;;;22.40;62.50;;;;;;6297284;28;20492;-64
2023/08/02 08:17:09;;;;;;;1.80;0.85;;;22.40;62.70;;;;;;6288106;28;21080;-65
2023/08/02 08:20:10;;;;;;;2.17;0.80;;;22.40;62.70;;;;;;6297653;28;20040;-66
2023/08/02 08:23:11;;;;;;;1.17;0.90;;;22.40;62.80;;;;;;6297486;28;20540;-65
2023/08/02 08:26:12;;;;;;;1.83;1.00;;;22.40;62.80;;;;;;6295542;28;20405;-65
2023/08/02 08:29:13;;;;;;;1.88;1.00;;;22.40;62.90;;;;;;6297455;28;20101;-65
2023/08/02 08:32:14;;;;;;;1.30;0.90;;;22.40;62.90;;;;;;6297446;28;20024;-67
2023/08/02 08:35:14;;;;;;;1.17;0.77;;;22.30;62.90;;;;;;6295123;28;20413;-65
2023/08/02 08:38:15;;;;;;;2.05;0.80;;;22.30;62.90;;;;;;6297364;28;20662;-64
2023/08/02 08:41:17;;;;;;;1.00;0.70;;;22.30;62.90;;;;;;6295228;28;20033;-64
2023/08/02 08:44:18;;;;;;;1.10;0.80;;;22.30;62.90;;;;;;6297142;28;20465;-63
2023/08/02 08:47:19;;;;;;;2.33;0.90;;;22.30;62.90;;;;;;6296480;28;20033;-64
2023/08/02 08:50:22;;;;;;;1.67;0.80;;;22.30;62.90;;;;;;6296269;28;20021;-65
2023/08/02 08:53:30;;;;;;;1.02;0.80;;;22.30;63.00;;;;;;6296570;28;20389;-64
2023/08/02 08:56:35;;;;;;;1.92;1.00;;;22.30;63.00;;;;;;6296741;28;20385;-63
2023/08/02 08:59:36;;;;;;;3.30;1.00;;;22.30;63.00;;;;;;6295343;28;20024;-64
2023/08/02 09:02:41;;;;;;;1.13;0.80;;;22.30;63.00;;;;;;6296851;28;20112;-59
2023/08/02 09:05:42;;;;;;;1.70;0.80;;;22.30;63.00;;;;;;6296448;28;20025;-61
2023/08/02 09:08:47;;;;;;;2.97;0.90;;;22.30;63.10;;;;;;6295718;28;20478;-64
2023/08/02 09:11:49;;;;;;;1.20;0.85;;;22.30;63.10;;;;;;6296487;28;20173;-65
2023/08/02 09:15:04;;;;;;;1.33;0.80;;;22.30;63.10;;;;;;6294927;28;20078;-64
2023/08/02 09:18:05;;;;;;;2.45;0.85;;;22.30;63.10;;;;;;6296459;28;20481;-63
2023/08/02 09:21:07;;;;;;;0.80;0.50;;;22.30;63.10;;;;;;6296197;28;20100;-63
2023/08/02 09:24:08;;;;;;;1.05;0.88;;;22.30;63.10;;;;;;6296341;28;20020;-66
2023/08/02 09:27:17;;;;;;;2.15;0.80;;;22.30;63.10;;;;;;6294649;28;20031;-65
2023/08/02 09:30:35;;;;;;;1.27;0.70;;;22.30;63.10;;;;;;6296049;28;20104;-65
2023/08/02 09:33:51;;;;;;;1.42;0.80;;;22.20;63.00;;;;;;6294585;28;20036;-64
2023/08/02 09:36:51;;;;;;;;;;;22.30;63.10;;;;;;6295488;28;20078;-65
2023/08/02 09:39:52;;;;;;;1.05;0.88;;;22.30;63.10;;;;;;6294822;28;19912;-65
2023/08/02 09:42:57;;;;;;;1.17;0.80;;;22.30;63.10;;;;;;6295784;28;20046;-64
2023/08/02 09:45:57;;;;;;;;;;;22.30;63.10;;;;;;6296432;28;20521;-65
2023/08/02 09:48:59;;;;;;;1.80;0.90;;;22.20;63.00;;;;;;6295890;28;19930;-65
2023/08/02 09:52:00;;;;;;;1.65;0.77;;;22.20;63.00;;;;;;6295220;28;20024;-65
2023/08/02 09:55:01;;;;;;;1.65;0.77;;;22.30;63.20;;;;;;6295862;28;20531;-65
2023/08/02 09:58:03;;;;;;;1.65;0.70;;;22.20;63.10;;;;;;6295931;28;20405;-65
2023/08/02 10:01:04;;;;;;;1.45;0.73;;;22.20;63.10;;;;;;6295698;28;20047;-65
2023/08/02 10:04:13;;;;;;;1.73;0.80;;;22.20;63.10;;;;;;6295813;28;20025;-64
2023/08/02 10:07:16;;;;;;;1.90;0.70;;;22.20;63.10;;;;;;6295378;28;20024;-64
2023/08/02 10:10:25;;;;;;;1.40;0.98;;;22.20;63.10;;;;;;6295475;28;20023;-65
2023/08/02 10:13:28;;;;;;;1.00;0.70;;;22.20;63.10;;;;;;6295648;28;20020;-64
2023/08/02 10:16:30;;;;;;;1.52;0.85;;;22.20;63.10;;;;;;6293267;28;20031;-64
2023/08/02 10:19:34;;;;;;;0.98;0.50;;;22.20;63.10;;;;;;6295465;28;20382;-65
2023/08/02 10:22:36;;;;;;;1.92;0.70;;;22.20;63.10;;;;;;6295662;28;20029;-65
2023/08/02 10:25:37;;;;;;;1.17;0.60;;;22.20;63.10;;;;;;6295322;28;20493;-64
2023/08/02 10:28:40;;;;;;;2.00;0.80;;;22.20;63.10;;;;;;6295600;28;20017;-64
2023/08/02 10:31:41;;;;;;;1.15;0.70;;;22.20;63.10;;;;;;6295273;28;20028;-64
2023/08/02 10:34:44;;;;;;;1.50;0.60;;;22.20;63.10;;;;;;6295165;28;20052;-65
2023/08/02 10:37:54;;;;;;;1.08;0.68;;;22.20;63.20;;;;;;6295053;28;20107;-65
2023/08/02 10:41:03;;;;;;;1.55;0.80;;;22.20;63.10;;;;;;6293954;28;20115;-65
2023/08/02 10:44:12;;;;;;;1.05;0.60;;;22.20;63.10;;;;;;6294259;28;20082;-64
2023/08/02 10:47:27;;;;;;;1.00;0.70;;;22.20;63.10;;;;;;6294870;28;20052;-65
2023/08/02 10:50:48;;;;;;;1.38;0.70;;;22.20;63.10;;;;;;6299999;28;20103;-64
2023/08/02 10:54:31;;;;;;;0.88;0.70;;;22.20;63.20;;;;;;6300275;28;20044;-64
2023/08/02 10:57:31;;;;;;;0.50;0.50;;;22.20;63.20;;;;;;6299929;28;20466;-64
2023/08/02 11:00:37;;;;;;;1.52;0.70;;;22.20;63.10;;;;;;6299643;28;20086;-64
2023/08/02 11:03:39;;;;;;;0.70;0.70;;;22.20;63.10;;;;;;6299760;28;20024;-64
2023/08/02 11:06:40;;;;;;;0.60;0.60;;;22.20;63.10;;;;;;6299478;28;20024;-63
2023/08/02 11:09:41;;;;;;;1.15;0.77;;;22.20;63.10;;;;;;6299610;28;20437;-64
2023/08/02 11:12:52;;;;;;;0.75;0.50;;;22.20;63.10;;;;;;6299344;28;20021;-65
2023/08/02 11:16:05;;;;;;;0.88;0.60;;;22.20;63.20;;;;;;6299697;28;20078;-65
2023/08/02 11:19:09;;;;;;;0.68;0.60;;;22.20;63.20;;;;;;6298933;28;20069;-65
2023/08/02 11:22:10;;;;;;;1.40;0.80;;;22.10;63.10;;;;;;6298383;28;20024;-64
2023/08/02 11:25:19;;;;;;;1.20;0.70;;;22.20;63.20;;;;;;6296502;28;20536;-64
2023/08/02 11:28:20;;;;;;;1.17;0.70;;;22.20;63.20;;;;;;6295717;28;20020;-65
2023/08/02 11:31:25;;;;;;;0.68;0.60;;;22.20;63.20;;;;;;6297722;28;20574;-64
2023/08/02 11:34:27;;;;;;;;;;;22.20;63.20;;;;;;6297685;28;20044;-65
2023/08/02 11:37:28;;;;;;;1.58;0.75;;;22.20;63.10;;;;;;6297355;28;19908;-65
2023/08/02 11:40:36;;;;;;;1.23;0.70;;;22.10;63.10;;;;;;6297373;28;20051;-65
2023/08/02 11:43:38;;;;;;;1.50;0.65;;;22.10;63.00;;;;;;6297405;28;20021;-65
2023/08/02 11:46:40;;;;;;;0.60;0.60;;;22.10;63.10;;;;;;6296385;28;20405;-64
2023/08/02 11:49:57;;;;;;;1.25;0.70;;;22.10;63.10;;;;;;6297226;28;20024;-64
2023/08/02 11:53:06;;;;;;;0.82;0.68;;;22.20;63.20;;;;;;6297315;28;20629;-65
2023/08/02 11:56:06;;;;;;;1.17;0.60;;;22.10;63.10;;;;;;6296264;28;20036;-64
2023/08/02 11:59:11;;;;;;;0.60;0.55;;;22.10;63.10;;;;;;6295339;28;20029;-64
2023/08/02 12:02:33;;;;;;;35.10;4.03;;;22.10;63.10;;;;;;6296508;28;20099;-65
2023/08/02 12:05:34;;;;;;;81.00;7.50;;;22.10;63.60;;;;;;6294712;28;20663;-65
2023/08/02 12:08:35;;;;;;;33.35;4.78;;;22.30;63.50;;;;;;6296688;28;20038;-65
2023/08/02 12:11:36;;;;;;;8.70;2.08;;;22.30;63.20;;;;;;6296571;28;20020;-64
2023/08/02 12:14:37;;;;;;;11.65;1.90;;;22.30;63.10;;;;;;6296616;28;20489;-65
2023/08/02 12:17:38;;;;;;;12.65;1.80;;;22.20;63.10;;;;;;6295760;28;20382;-65
2023/08/02 12:20:38;;;;;;;11.70;2.20;;;22.20;63.20;;;;;;6296510;28;20408;-65
2023/08/02 12:23:39;;;;;;;9.82;2.08;;;22.20;63.20;;;;;;6295585;28;20035;-64
2023/08/02 12:26:40;;;;;;;12.10;2.10;;;22.20;63.30;;;;;;6295297;28;20036;-64
2023/08/02 12:29:44;;;;;;;6.07;2.28;;;22.20;63.30;;;;;;6295140;28;20051;-65
2023/08/02 12:32:46;;;;;;;4.63;1.85;;;22.20;63.40;;;;;;6294629;28;20599;-64
2023/08/02 12:35:47;;;;;;;4.75;2.03;;;22.10;63.30;;;;;;6294805;28;20020;-64
2023/08/02 12:38:47;;;;;;;8.43;2.15;;;22.10;63.30;;;;;;6294871;28;20090;-64
2023/08/02 12:41:48;;;;;;;5.07;1.90;;;22.10;63.40;;;;;;6294047;28;20020;-64
2023/08/02 12:44:49;;;;;;;6.38;2.20;;;22.10;63.40;;;;;;6294973;28;20111;-65
2023/08/02 12:47:51;;;;;;;10.15;2.70;;;22.10;63.40;;;;;;6292933;28;20027;-64
2023/08/02 12:50:51;;;;;;;7.70;2.13;;;22.10;63.40;;;;;;6295027;28;20017;-65
2023/08/02 12:53:52;;;;;;;9.80;2.35;;;22.10;63.40;;;;;;6294383;28;20031;-64
2023/08/02 12:56:53;;;;;;;6.22;2.20;;;22.10;63.40;;;;;;6294157;28;20032;-64
2023/08/02 12:59:53;;;;;;;5.57;1.77;;;22.10;63.50;;;;;;6287415;28;20079;-64
2023/08/02 13:02:54;;;;;;;5.28;2.22;;;22.10;63.50;;;;;;6294783;28;20489;-63
2023/08/02 13:05:55;;;;;;;4.93;2.08;;;22.10;63.40;;;;;;6293714;28;20531;-64
2023/08/02 13:08:56;;;;;;;2.53;1.65;;;22.10;63.40;;;;;;6287824;28;20481;-65
2023/08/02 13:11:56;;;;;;;5.40;2.05;;;22.10;63.40;;;;;;6294258;28;20441;-64
2023/08/02 13:14:58;;;;;;;6.88;2.08;;;22.10;63.40;;;;;;6293558;28;20082;-64
2023/08/02 13:17:58;;;;;;;4.28;1.83;;;22.10;63.40;;;;;;6293870;28;20021;-64
2023/08/02 13:21:00;;;;;;;4.82;1.80;;;22.10;63.40;;;;;;6294130;28;20032;-64
2023/08/02 13:24:01;;;;;;;3.72;1.67;;;22.10;63.40;;;;;;6293966;28;20052;-65
2023/08/02 13:27:02;;;;;;;5.63;2.15;;;22.10;63.40;;;;;;6293614;28;20024;-64
2023/08/02 13:30:03;;;;;;;3.80;1.70;;;22.10;63.40;;;;;;6293920;28;20020;-65
2023/08/02 13:33:04;;;;;;;3.28;1.65;;;22.10;63.40;;;;;;6293889;28;20036;-64
2023/08/02 13:36:04;;;;;;;5.55;1.88;;;22.10;63.40;;;;;;6293571;28;20052;-65
2023/08/02 13:39:05;;;;;;;3.28;1.50;;;22.10;63.40;;;;;;6293741;28;20024;-65
2023/08/02 13:42:07;;;;;;;4.22;1.65;;;22.10;63.40;;;;;;6294056;28;20016;-64
2023/08/02 13:45:08;;;;;;;4.65;1.52;;;22.10;63.40;;;;;;6292178;28;20045;-63
2023/08/02 13:48:09;;;;;;;4.28;1.65;;;22.10;63.40;;;;;;6293569;28;20401;-64
2023/08/02 13:51:10;;;;;;;3.38;1.55;;;22.10;63.30;;;;;;6294388;28;20017;-64
2023/08/02 13:54:11;;;;;;;3.70;1.58;;;22.10;63.40;;;;;;6294373;28;20377;-64
2023/08/02 13:57:11;;;;;;;4.07;1.60;;;22.10;63.30;;;;;;6293783;28;20496;-64
2023/08/02 14:00:13;;;;;;;3.22;1.30;;;22.10;63.30;;;;;;6294190;28;20051;-64
2023/08/02 14:03:13;;;;;;;3.38;1.75;;;22.10;63.30;;;;;;6293027;28;20481;-65
2023/08/02 14:06:14;;;;;;;3.22;1.60;;;22.10;63.30;;;;;;6293711;28;20020;-65
2023/08/02 14:09:15;;;;;;;3.95;1.58;;;22.10;63.30;;;;;;6293504;28;20507;-65
2023/08/02 14:12:16;;;;;;;2.38;1.10;;;22.10;63.30;;;;;;6294234;28;20418;-67
2023/08/02 14:15:17;;;;;;;3.25;1.52;;;22.10;63.30;;;;;;6292781;28;20012;-64
2023/08/02 14:18:17;;;;;;;4.32;1.80;;;22.10;63.30;;;;;;6293666;28;20025;-65
2023/08/02 14:21:18;;;;;;;3.63;1.48;;;22.10;63.40;;;;;;6293817;28;20035;-63
2023/08/02 14:24:19;;;;;;;3.15;1.48;;;22.10;63.40;;;;;;6298488;28;20047;-64
2023/08/02 14:27:20;;;;;;;2.17;1.20;;;22.10;63.40;;;;;;6298774;28;20025;-64
2023/08/02 14:30:20;;;;;;;2.47;1.40;;;22.10;63.30;;;;;;6297808;28;20482;-64
2023/08/02 14:33:21;;;;;;;4.63;1.80;;;22.10;63.30;;;;;;6298410;28;20517;-64
2023/08/02 14:36:22;;;;;;;2.72;1.20;;;22.10;63.40;;;;;;6297090;28;20111;-61
2023/08/02 14:39:22;;;;;;;2.20;1.25;;;22.10;63.40;;;;;;6298629;28;20025;-71
2023/08/02 14:42:23;;;;;;;3.80;1.48;;;22.10;63.30;;;;;;6298490;28;20354;-65
2023/08/02 14:45:24;;;;;;;2.47;1.40;;;22.10;63.40;;;;;;6296269;28;20035;-65
2023/08/02 14:48:24;;;;;;;1.48;1.10;;;22.10;63.20;;;;;;6298473;28;20098;-65
2023/08/02 14:51:25;;;;;;;2.50;1.20;;;22.10;63.10;;;;;;6296791;28;20390;-64
2023/08/02 14:54:26;;;;;;;1.58;1.00;;;22.10;63.10;;;;;;6290960;28;20103;-63
2023/08/02 14:57:27;;;;;;;2.15;1.10;;;22.10;63.20;;;;;;6297627;28;20021;-64
2023/08/02 15:00:28;;;;;;;1.90;1.02;;;22.10;63.20;;;;;;6298017;28;20094;-64
2023/08/02 15:03:29;;;;;;;1.95;1.13;;;22.10;63.20;;;;;;6298043;28;20386;-64
2023/08/02 15:06:29;;;;;;;1.55;1.00;;;22.10;63.30;;;;;;6290091;28;20031;-65
2023/08/02 15:09:30;;;;;;;2.85;1.10;;;22.10;63.30;;;;;;6297928;28;20092;-65
2023/08/02 15:12:31;;;;;;;1.70;1.05;;;22.10;63.30;;;;;;6297762;28;20062;-64
2023/08/02 15:15:32;;;;;;;1.25;0.98;;;22.10;63.30;;;;;;6297070;28;20055;-65
2023/08/02 15:18:32;;;;;;;1.83;1.20;;;22.10;63.30;;;;;;6298252;28;20063;-65
2023/08/02 15:21:34;;;;;;;2.47;1.15;;;22.10;63.30;;;;;;6297207;28;20108;-65
2023/08/02 15:28:32;;;;;;;;;;;22.10;63.30;;;;;;6276990;28;20115;-65
2023/08/02 15:36:02;;;;;;;1.70;1.00;;;22.10;63.30;;;;;;6294367;28;20041;-65
2023/08/02 15:39:03;;;;;;;2.17;1.10;;;22.10;63.30;;;;;;6276217;28;20482;-65
2023/08/02 15:46:00;;;;;;;2.67;1.30;;;22.10;63.40;;;;;;6301090;28;20511;-65
2023/08/02 15:52:58;;;;;;;1.75;0.98;;;22.10;63.30;;;;;;6301189;28;20021;-65
2023/08/02 15:59:55;;;;;;;1.80;1.05;;;22.10;63.30;;;;;;6300842;28;20020;-65
2023/08/02 16:06:54;;;;;;;1.15;0.80;;;22.10;63.30;;;;;;6300187;28;20470;-64
2023/08/02 16:13:52;;;;;;;;;;;22.10;63.30;;;;;;6300451;28;20013;-65
2023/08/02 16:20:49;;;;;;;1.65;1.00;;;22.10;63.30;;;;;;6300247;28;20020;-65